Aviation Digital Data Service (ADDS)

Output produced by TAFs form (0000 UTC 26 May 2017)
found at http://aviationweather.gov/adds/tafs/
 
KPUB 252356Z 2600/2624 33023G43KT P6SM FEW100 SCT200 
     FM260300 30015KT P6SM SCT120 SCT200 
     FM260400 36014KT P6SM SCT120 SCT200 
     FM260800 01009KT P6SM BKN100 
     FM261400 12006KT P6SM SCT080 BKN100 
     FM261800 15013G23KT P6SM FEW090 SCT120 BKN150